createdAt,value
2022-09-06T00:00:21.085Z,17.08
2022-09-06T00:01:21.094Z,17.04
2022-09-06T00:02:24.315Z,17.08
2022-09-06T00:03:21.050Z,17.02
2022-09-06T00:04:21.084Z,16.99
2022-09-06T00:05:21.034Z,16.99
2022-09-06T00:06:21.017Z,16.93
2022-09-06T00:07:21.167Z,16.93
2022-09-06T00:08:21.063Z,16.91
2022-09-06T00:09:20.986Z,16.86
2022-09-06T00:10:20.973Z,16.86
2022-09-06T00:11:21.905Z,16.84
2022-09-06T00:12:20.998Z,16.78
2022-09-06T00:13:20.938Z,16.87
2022-09-06T00:14:20.933Z,16.86
2022-09-06T00:15:20.919Z,16.74
2022-09-06T00:16:21.018Z,16.74
2022-09-06T00:17:20.918Z,16.75
2022-09-06T00:18:20.976Z,16.72
2022-09-06T00:19:20.878Z,16.74
2022-09-06T00:20:20.861Z,16.74
2022-09-06T00:21:20.851Z,16.74
2022-09-06T00:22:20.861Z,16.78
2022-09-06T00:23:20.830Z,16.69
2022-09-06T00:24:20.851Z,16.75
2022-09-06T00:25:20.816Z,16.66
2022-09-06T00:26:21.712Z,16.78
2022-09-06T00:27:20.831Z,16.66
2022-09-06T00:28:20.777Z,16.74
2022-09-06T00:29:20.764Z,16.61
2022-09-06T00:30:21.811Z,16.60
2022-09-06T00:31:20.815Z,16.68
2022-09-06T00:32:20.733Z,16.58
2022-09-06T00:33:20.749Z,16.65
2022-09-06T00:34:20.712Z,16.60
2022-09-06T00:35:20.711Z,16.65
2022-09-06T00:36:20.686Z,16.60
2022-09-06T00:37:28.253Z,16.54
2022-09-06T00:38:20.683Z,16.57
2022-09-06T00:39:20.650Z,16.57
2022-09-06T00:40:20.638Z,16.54
2022-09-06T00:41:20.626Z,16.54
2022-09-06T00:42:21.539Z,16.47
2022-09-06T00:43:20.609Z,16.53
2022-09-06T00:44:20.596Z,16.43
2022-09-06T00:45:20.580Z,16.41
2022-09-06T00:46:20.686Z,16.41
2022-09-06T00:47:20.581Z,16.35
2022-09-06T00:48:20.623Z,16.41
2022-09-06T00:49:20.537Z,16.39
2022-09-06T00:50:20.533Z,16.36
2022-09-06T00:51:27.277Z,16.36
2022-09-06T00:52:20.514Z,16.36
2022-09-06T00:53:20.511Z,16.41
2022-09-06T00:54:20.482Z,16.38
2022-09-06T00:55:20.472Z,16.39
2022-09-06T00:56:20.472Z,16.35
2022-09-06T00:57:20.463Z,16.39
2022-09-06T00:58:20.490Z,16.42
2022-09-06T00:59:28.243Z,16.38
2022-09-06T01:00:21.247Z,16.41
2022-09-06T01:01:20.566Z,16.32
2022-09-06T01:02:20.592Z,16.32
2022-09-06T01:03:20.380Z,16.31
2022-09-06T01:04:20.373Z,16.33
2022-09-06T01:05:20.358Z,16.31
2022-09-06T01:06:20.639Z,16.20
2022-09-06T01:07:20.334Z,16.26
2022-09-06T01:08:20.355Z,16.29
2022-09-06T01:09:20.318Z,16.26
2022-09-06T01:10:20.304Z,16.21
2022-09-06T01:11:20.290Z,16.28
2022-09-06T01:12:20.302Z,16.17
2022-09-06T01:13:23.416Z,16.16
2022-09-06T01:14:20.267Z,16.17
2022-09-06T01:15:20.249Z,16.26
2022-09-06T01:16:20.236Z,16.23
2022-09-06T01:17:20.261Z,16.23
2022-09-06T01:18:20.239Z,16.24
2022-09-06T01:19:21.463Z,16.21
2022-09-06T01:20:20.197Z,16.17
2022-09-06T01:21:20.186Z,16.16
2022-09-06T01:22:20.174Z,16.21
2022-09-06T01:23:20.157Z,16.26
2022-09-06T01:24:20.189Z,16.20
2022-09-06T01:25:20.275Z,16.17
2022-09-06T01:26:20.178Z,16.17
2022-09-06T01:27:20.137Z,16.16
2022-09-06T01:28:20.150Z,16.15
2022-09-06T01:29:20.127Z,16.21
2022-09-06T01:30:20.109Z,16.20
2022-09-06T01:31:20.128Z,16.16
2022-09-06T01:32:20.061Z,16.16
2022-09-06T01:33:20.048Z,16.21
2022-09-06T01:34:20.086Z,16.24
2022-09-06T01:35:20.023Z,16.10
2022-09-06T01:36:20.062Z,16.13
2022-09-06T01:37:20.005Z,16.21
2022-09-06T01:38:20.097Z,16.16
2022-09-06T01:39:19.983Z,16.23
2022-09-06T01:40:20.010Z,16.21
2022-09-06T01:41:19.965Z,16.20
2022-09-06T01:42:19.979Z,16.24
2022-09-06T01:43:19.938Z,16.24
2022-09-06T01:44:19.962Z,16.26
2022-09-06T01:45:19.935Z,16.20
2022-09-06T01:46:19.980Z,16.17
2022-09-06T01:47:19.907Z,16.20
2022-09-06T01:48:19.885Z,16.21
2022-09-06T01:49:19.894Z,16.20
2022-09-06T01:50:19.862Z,16.26
2022-09-06T01:51:19.846Z,16.26
2022-09-06T01:52:19.862Z,16.21
2022-09-06T01:53:19.826Z,16.16
2022-09-06T01:54:28.990Z,16.16
2022-09-06T01:55:20.712Z,16.24
2022-09-06T01:56:19.796Z,16.20
2022-09-06T01:57:19.778Z,16.20
2022-09-06T01:58:19.769Z,16.13
2022-09-06T01:59:20.006Z,16.17
2022-09-06T02:00:19.789Z,16.15
2022-09-06T02:01:19.764Z,16.05
2022-09-06T02:02:19.759Z,16.08
2022-09-06T02:03:19.717Z,16.08
2022-09-06T02:04:19.704Z,16.02
2022-09-06T02:05:19.733Z,16.00
2022-09-06T02:06:19.685Z,15.98
2022-09-06T02:07:19.678Z,15.98
2022-09-06T02:08:19.665Z,15.97
2022-09-06T02:09:19.657Z,15.98
2022-09-06T02:10:19.663Z,15.95
2022-09-06T02:11:19.624Z,15.95
2022-09-06T02:12:19.616Z,16.01
2022-09-06T02:13:19.605Z,15.95
2022-09-06T02:14:19.808Z,15.90
2022-09-06T02:15:19.605Z,15.88
2022-09-06T02:16:19.647Z,15.91
2022-09-06T02:17:19.557Z,15.84
2022-09-06T02:18:19.571Z,15.80
2022-09-06T02:19:19.543Z,15.82
2022-09-06T02:20:19.533Z,15.82
2022-09-06T02:21:19.547Z,15.82
2022-09-06T02:22:19.504Z,15.76
2022-09-06T02:23:19.494Z,15.82
2022-09-06T02:24:19.484Z,15.73
2022-09-06T02:25:19.674Z,15.75
2022-09-06T02:26:19.490Z,15.76
2022-09-06T02:27:19.455Z,15.70
2022-09-06T02:28:19.454Z,15.70
2022-09-06T02:29:19.452Z,15.67
2022-09-06T02:30:19.475Z,15.76
2022-09-06T02:31:19.767Z,15.65
2022-09-06T02:32:19.428Z,15.72
2022-09-06T02:33:19.386Z,15.68
2022-09-06T02:34:19.382Z,15.64
2022-09-06T02:35:19.360Z,15.58
2022-09-06T02:36:19.376Z,15.62
2022-09-06T02:37:19.341Z,15.61
2022-09-06T02:38:19.331Z,15.64
2022-09-06T02:39:19.315Z,15.62
2022-09-06T02:40:19.308Z,15.55
2022-09-06T02:41:19.342Z,15.55
2022-09-06T02:42:20.289Z,15.49
2022-09-06T02:43:19.275Z,15.51
2022-09-06T02:44:19.262Z,15.54
2022-09-06T02:45:19.272Z,15.52
2022-09-06T02:46:19.317Z,15.58
2022-09-06T02:47:19.227Z,15.55
2022-09-06T02:48:19.306Z,15.47
2022-09-06T02:49:19.210Z,15.47
2022-09-06T02:50:21.047Z,15.52
2022-09-06T02:51:19.213Z,15.54
2022-09-06T02:52:19.175Z,15.55
2022-09-06T02:53:19.204Z,15.47
2022-09-06T02:54:19.148Z,15.54
2022-09-06T02:55:19.136Z,15.52
2022-09-06T02:56:19.134Z,15.52
2022-09-06T02:57:19.117Z,15.52
2022-09-06T02:58:19.129Z,15.55
2022-09-06T02:59:19.771Z,15.52
2022-09-06T03:00:19.085Z,15.62
2022-09-06T03:01:19.103Z,15.61
2022-09-06T03:02:19.144Z,15.59
2022-09-06T03:03:21.891Z,15.62
2022-09-06T03:04:19.038Z,15.54
2022-09-06T03:05:19.033Z,15.52
2022-09-06T03:06:19.018Z,15.58
2022-09-06T03:07:19.027Z,15.51
2022-09-06T03:08:19.024Z,15.42
2022-09-06T03:09:18.979Z,15.49
2022-09-06T03:10:18.976Z,15.47
2022-09-06T03:11:18.970Z,15.47
2022-09-06T03:12:18.954Z,15.51
2022-09-06T03:13:18.960Z,15.49
2022-09-06T03:14:19.780Z,15.51
2022-09-06T03:15:18.914Z,15.39
2022-09-06T03:16:18.964Z,15.40
2022-09-06T03:17:18.900Z,15.40
2022-09-06T03:18:22.324Z,15.40
2022-09-06T03:19:18.872Z,15.42
2022-09-06T03:20:19.154Z,15.36
2022-09-06T03:21:18.843Z,15.46
2022-09-06T03:22:27.827Z,15.37
2022-09-06T03:23:18.825Z,15.29
2022-09-06T03:24:18.849Z,15.27
2022-09-06T03:25:18.799Z,15.24
2022-09-06T03:26:18.836Z,15.28
2022-09-06T03:27:20.940Z,15.22
2022-09-06T03:28:18.770Z,15.33
2022-09-06T03:29:18.757Z,15.36
2022-09-06T03:30:18.747Z,15.39
2022-09-06T03:31:18.771Z,15.42
2022-09-06T03:32:18.760Z,15.39
2022-09-06T03:33:18.710Z,15.40
2022-09-06T03:34:18.695Z,15.35
2022-09-06T03:35:18.879Z,15.35
2022-09-06T03:36:18.693Z,15.25
2022-09-06T03:37:18.663Z,15.29
2022-09-06T03:38:18.680Z,15.42
2022-09-06T03:39:18.644Z,15.46
2022-09-06T03:40:18.641Z,15.39
2022-09-06T03:41:18.650Z,15.27
2022-09-06T03:42:18.612Z,15.29
2022-09-06T03:43:18.599Z,15.39
2022-09-06T03:44:18.589Z,15.39
2022-09-06T03:45:18.574Z,15.36
2022-09-06T03:46:18.716Z,15.39
2022-09-06T03:47:19.730Z,15.44
2022-09-06T03:48:18.548Z,15.39
2022-09-06T03:49:18.545Z,15.36
2022-09-06T03:50:18.554Z,15.25
2022-09-06T03:51:18.503Z,15.31
2022-09-06T03:52:19.318Z,15.29
2022-09-06T03:53:18.483Z,15.29
2022-09-06T03:54:18.474Z,15.35
2022-09-06T03:55:18.488Z,15.37
2022-09-06T03:56:18.498Z,15.37
2022-09-06T03:57:18.445Z,15.27
2022-09-06T03:58:18.436Z,15.31
2022-09-06T03:59:18.444Z,15.33
2022-09-06T04:00:18.430Z,15.29
2022-09-06T04:01:18.499Z,15.33
2022-09-06T04:02:18.431Z,15.15
2022-09-06T04:03:18.627Z,15.22
2022-09-06T04:04:18.384Z,15.24
2022-09-06T04:05:18.347Z,15.15
2022-09-06T04:06:18.338Z,15.24
2022-09-06T04:07:18.490Z,15.15
2022-09-06T04:08:18.319Z,15.19
2022-09-06T04:09:18.341Z,15.14
2022-09-06T04:10:18.293Z,15.19
2022-09-06T04:11:18.309Z,15.19
2022-09-06T04:12:18.271Z,15.21
2022-09-06T04:13:18.261Z,15.21
2022-09-06T04:14:18.270Z,15.18
2022-09-06T04:15:18.233Z,15.31
2022-09-06T04:16:18.283Z,15.19
2022-09-06T04:17:18.213Z,15.19
2022-09-06T04:18:18.210Z,15.19
2022-09-06T04:19:18.230Z,15.28
2022-09-06T04:20:18.529Z,15.18
2022-09-06T04:21:18.168Z,15.17
2022-09-06T04:22:18.156Z,15.19
2022-09-06T04:23:18.142Z,15.22
2022-09-06T04:24:21.262Z,15.21
2022-09-06T04:25:18.214Z,15.18
2022-09-06T04:26:18.309Z,15.17
2022-09-06T04:27:18.106Z,15.15
2022-09-06T04:28:18.083Z,15.09
2022-09-06T04:29:18.095Z,15.09
2022-09-06T04:30:18.071Z,15.15
2022-09-06T04:31:18.281Z,15.11
2022-09-06T04:32:18.808Z,15.07
2022-09-06T04:33:18.036Z,15.10
2022-09-06T04:34:18.181Z,15.04
2022-09-06T04:35:18.297Z,15.14
2022-09-06T04:36:18.806Z,15.11
2022-09-06T04:37:18.173Z,15.14
2022-09-06T04:38:18.019Z,15.11
2022-09-06T04:39:18.004Z,15.06
2022-09-06T04:40:17.984Z,14.99
2022-09-06T04:41:18.175Z,14.97
2022-09-06T04:42:17.935Z,14.91
2022-09-06T04:43:18.083Z,14.97
2022-09-06T04:44:17.983Z,14.99
2022-09-06T04:45:17.959Z,15.03
2022-09-06T04:46:18.041Z,15.04
2022-09-06T04:47:17.907Z,15.04
2022-09-06T04:48:18.804Z,14.99
2022-09-06T04:49:17.887Z,14.99
2022-09-06T04:50:17.878Z,14.89
2022-09-06T04:51:17.838Z,15.02
2022-09-06T04:52:17.900Z,14.99
2022-09-06T04:53:17.823Z,15.02
2022-09-06T04:54:18.322Z,15.03
2022-09-06T04:55:17.791Z,14.94
2022-09-06T04:56:17.778Z,14.94
2022-09-06T04:57:17.762Z,14.97
2022-09-06T04:58:17.756Z,15.09
2022-09-06T04:59:17.767Z,15.03
2022-09-06T05:00:18.302Z,15.03
2022-09-06T05:01:17.825Z,15.09
2022-09-06T05:02:17.788Z,15.06
2022-09-06T05:03:17.704Z,15.03
2022-09-06T05:04:17.701Z,15.14
2022-09-06T05:05:18.335Z,15.06
2022-09-06T05:06:17.662Z,15.11
2022-09-06T05:07:17.650Z,15.07
2022-09-06T05:08:17.643Z,15.21
2022-09-06T05:09:17.649Z,15.17
2022-09-06T05:10:17.611Z,15.19
2022-09-06T05:11:18.308Z,15.19
2022-09-06T05:12:17.589Z,15.25
2022-09-06T05:13:17.581Z,15.29
2022-09-06T05:14:17.600Z,15.28
2022-09-06T05:15:17.560Z,15.36
2022-09-06T05:16:17.655Z,15.27
2022-09-06T05:17:17.954Z,15.33
2022-09-06T05:18:17.535Z,15.31
2022-09-06T05:19:17.545Z,15.27
2022-09-06T05:20:17.502Z,15.29
2022-09-06T05:21:17.490Z,15.35
2022-09-06T05:22:17.485Z,15.36
2022-09-06T05:23:17.472Z,15.35
2022-09-06T05:24:17.472Z,15.44
2022-09-06T05:25:17.501Z,15.52
2022-09-06T05:26:17.507Z,15.49
2022-09-06T05:27:17.421Z,15.57
2022-09-06T05:28:17.842Z,15.73
2022-09-06T05:29:17.399Z,15.73
2022-09-06T05:30:17.468Z,15.67
2022-09-06T05:31:17.389Z,15.70
2022-09-06T05:32:17.429Z,15.79
2022-09-06T05:33:17.364Z,15.77
2022-09-06T05:34:19.664Z,15.75
2022-09-06T05:35:17.389Z,15.76
2022-09-06T05:36:17.328Z,15.72
2022-09-06T05:37:17.312Z,15.83
2022-09-06T05:38:17.305Z,15.94
2022-09-06T05:39:17.318Z,16.08
2022-09-06T05:40:17.298Z,16.20
2022-09-06T05:41:17.303Z,16.23
2022-09-06T05:42:19.371Z,16.31
2022-09-06T05:43:17.247Z,16.33
2022-09-06T05:44:17.263Z,16.35
2022-09-06T05:45:17.267Z,16.39
2022-09-06T05:46:17.256Z,16.56
2022-09-06T05:47:17.210Z,16.65
2022-09-06T05:48:17.777Z,16.72
2022-09-06T05:49:22.818Z,16.87
2022-09-06T05:50:17.171Z,17.06
2022-09-06T05:51:18.822Z,17.04
2022-09-06T05:52:17.159Z,17.02
2022-09-06T05:53:17.136Z,16.94
2022-09-06T05:54:17.161Z,16.99
2022-09-06T05:55:17.114Z,16.96
2022-09-06T05:56:17.154Z,16.96
2022-09-06T05:57:17.147Z,17.01
2022-09-06T05:58:17.102Z,17.23
2022-09-06T05:59:17.070Z,17.15
2022-09-06T06:00:24.386Z,17.30
2022-09-06T06:01:17.161Z,17.14
2022-09-06T06:02:17.877Z,17.29
2022-09-06T06:03:17.025Z,17.51
2022-09-06T06:04:17.034Z,17.70
2022-09-06T06:05:17.038Z,17.90
2022-09-06T06:06:17.001Z,18.08
2022-09-06T06:07:16.986Z,18.18
2022-09-06T06:08:17.313Z,18.23
2022-09-06T06:09:16.983Z,18.15
2022-09-06T06:10:16.955Z,18.19
2022-09-06T06:11:16.939Z,18.07
2022-09-06T06:12:16.927Z,18.04
2022-09-06T06:13:16.926Z,18.05
2022-09-06T06:14:16.907Z,18.20
2022-09-06T06:15:16.936Z,18.26
2022-09-06T06:16:16.994Z,18.25
2022-09-06T06:17:16.872Z,18.23
2022-09-06T06:18:16.860Z,18.07
2022-09-06T06:19:16.849Z,18.37
2022-09-06T06:20:16.862Z,18.55
2022-09-06T06:21:16.830Z,18.86
2022-09-06T06:22:16.812Z,18.86
2022-09-06T06:23:18.289Z,18.86
2022-09-06T06:24:16.808Z,19.27
2022-09-06T06:25:16.821Z,19.56
2022-09-06T06:26:16.772Z,19.64
2022-09-06T06:27:16.760Z,19.89
2022-09-06T06:28:16.749Z,20.02
2022-09-06T06:29:16.740Z,19.92
2022-09-06T06:30:35.231Z,20.18
2022-09-06T06:31:16.864Z,20.21
2022-09-06T06:32:16.702Z,20.37
2022-09-06T06:33:16.692Z,20.39
2022-09-06T06:34:16.679Z,20.36
2022-09-06T06:35:16.679Z,20.69
2022-09-06T06:36:17.375Z,20.51
2022-09-06T06:37:16.651Z,20.93
2022-09-06T06:38:16.636Z,21.64
2022-09-06T06:39:16.629Z,21.67
2022-09-06T06:40:16.697Z,21.98
2022-09-06T06:41:16.624Z,22.43
2022-09-06T06:42:16.596Z,22.94
2022-09-06T06:43:16.580Z,23.08
2022-09-06T06:44:16.596Z,23.21
2022-09-06T06:45:16.564Z,22.99
2022-09-06T06:46:16.615Z,22.85
2022-09-06T06:47:16.557Z,23.10
2022-09-06T06:48:16.528Z,23.20
2022-09-06T06:49:16.515Z,23.39
2022-09-06T06:50:16.539Z,23.62
2022-09-06T06:51:17.297Z,24.28
2022-09-06T06:52:16.485Z,23.83
2022-09-06T06:53:16.489Z,23.77
2022-09-06T06:54:16.458Z,23.78
2022-09-06T06:55:16.882Z,24.23
2022-09-06T06:56:16.505Z,24.47
2022-09-06T06:57:16.441Z,24.86
2022-09-06T06:58:16.416Z,25.07
2022-09-06T07:00:36.492Z,23.91
2022-09-06T07:01:36.677Z,23.03
2022-09-06T07:02:36.361Z,22.45
2022-09-06T07:03:36.373Z,21.66
2022-09-06T07:04:36.562Z,21.48
2022-09-06T07:07:39.561Z,21.77
2022-09-06T07:08:36.392Z,22.70
2022-09-06T07:10:37.342Z,23.88
2022-09-06T07:11:36.268Z,24.05
2022-09-06T07:12:36.273Z,24.36
2022-09-06T07:13:36.244Z,25.01
2022-09-06T07:14:36.265Z,25.46
2022-09-06T07:15:36.221Z,25.91
2022-09-06T07:16:36.248Z,26.33
2022-09-06T07:17:36.225Z,25.22
2022-09-06T07:18:36.186Z,25.25
2022-09-06T07:21:37.508Z,26.48
2022-09-06T07:22:36.146Z,27.18
2022-09-06T07:24:37.157Z,27.39
2022-09-06T07:25:36.138Z,27.77
2022-09-06T07:26:36.260Z,28.57
2022-09-06T07:27:51.537Z,28.78
2022-09-06T07:28:37.088Z,28.22
2022-09-06T07:29:36.093Z,27.77
2022-09-06T07:30:36.071Z,27.48
2022-09-06T07:32:37.037Z,27.26
2022-09-06T07:33:36.020Z,27.39
2022-09-06T07:34:36.010Z,27.08
2022-09-06T07:35:36.020Z,26.81
2022-09-06T07:36:36.118Z,26.84
2022-09-06T07:37:35.975Z,26.97
2022-09-06T07:38:35.971Z,27.10
2022-09-06T07:39:36.081Z,27.25
2022-09-06T07:40:36.075Z,26.63
2022-09-06T07:41:35.934Z,26.55
2022-09-06T07:42:36.821Z,26.92
2022-09-06T07:43:35.907Z,27.20
2022-09-06T07:44:35.905Z,27.54
2022-09-06T07:45:35.911Z,28.05
2022-09-06T07:46:35.918Z,27.64
2022-09-06T07:48:36.857Z,27.18
2022-09-06T07:49:35.851Z,27.67
2022-09-06T07:50:53.540Z,27.87
2022-09-06T07:51:36.876Z,27.78
2022-09-06T07:53:37.323Z,27.82
2022-09-06T07:54:35.792Z,27.67
2022-09-06T07:55:35.796Z,27.21
2022-09-06T07:56:35.769Z,27.29
2022-09-06T07:57:35.992Z,27.52
2022-09-06T07:58:35.749Z,27.78
2022-09-06T07:59:38.095Z,27.82
2022-09-06T08:00:35.781Z,28.19
2022-09-06T08:01:35.734Z,29.10
2022-09-06T08:02:35.764Z,29.22
2022-09-06T08:03:35.701Z,28.39
2022-09-06T08:04:35.682Z,27.49
2022-09-06T08:09:36.628Z,28.51
2022-09-06T08:10:35.847Z,28.48
2022-09-06T08:11:35.606Z,28.37
2022-09-06T08:12:35.599Z,28.39
2022-09-06T08:13:35.582Z,28.19
2022-09-06T08:14:35.610Z,28.01
2022-09-06T08:15:35.606Z,28.17
2022-09-06T08:16:35.624Z,28.08
2022-09-06T08:17:35.554Z,27.63
2022-09-06T08:18:35.556Z,26.92
2022-09-06T08:19:35.518Z,26.43
2022-09-06T08:20:35.535Z,26.15
2022-09-06T08:21:35.508Z,25.73
2022-09-06T08:22:35.486Z,25.25
2022-09-06T08:23:35.476Z,25.23
2022-09-06T08:24:35.574Z,25.13
2022-09-06T08:25:36.207Z,25.10
2022-09-06T08:26:35.439Z,25.01
2022-09-06T08:27:35.454Z,24.91
2022-09-06T08:28:35.437Z,24.96
2022-09-06T08:29:35.652Z,24.88
2022-09-06T08:30:35.408Z,24.48
2022-09-06T08:31:35.523Z,24.26
2022-09-06T08:32:35.371Z,23.44
2022-09-06T08:33:35.364Z,22.99
2022-09-06T08:34:35.372Z,23.06
2022-09-06T08:35:35.345Z,23.05
2022-09-06T08:36:35.330Z,23.05
2022-09-06T08:37:35.320Z,23.12
2022-09-06T08:38:35.432Z,23.54
2022-09-06T08:39:35.648Z,23.88
2022-09-06T08:40:35.307Z,24.17
2022-09-06T08:41:35.317Z,24.47
2022-09-06T08:42:35.508Z,25.01
2022-09-06T08:43:35.278Z,25.01
2022-09-06T08:45:36.236Z,25.58
2022-09-06T08:46:35.250Z,25.58
2022-09-06T08:47:35.233Z,25.62
2022-09-06T08:48:35.210Z,25.47
2022-09-06T08:49:35.204Z,25.35
2022-09-06T08:50:35.181Z,25.88
2022-09-06T08:51:38.370Z,26.28
2022-09-06T08:52:35.174Z,26.40
2022-09-06T08:53:35.145Z,26.81
2022-09-06T08:54:35.145Z,26.99
2022-09-06T08:55:35.124Z,26.73
2022-09-06T08:56:35.121Z,26.68
2022-09-06T08:57:39.997Z,26.29
2022-09-06T08:58:35.089Z,26.09
2022-09-06T08:59:35.361Z,26.36
2022-09-06T09:00:35.124Z,26.40
2022-09-06T09:01:35.100Z,26.26
2022-09-06T09:02:35.061Z,25.80
2022-09-06T09:03:35.287Z,25.85
2022-09-06T09:04:35.027Z,25.83
2022-09-06T09:05:35.030Z,25.95
2022-09-06T09:06:35.013Z,26.44
2022-09-06T09:07:35.019Z,26.78
2022-09-06T09:08:35.030Z,26.29
2022-09-06T09:09:34.967Z,26.21
2022-09-06T09:10:34.958Z,25.66
2022-09-06T09:11:34.949Z,25.47
2022-09-06T09:12:34.974Z,25.26
2022-09-06T09:13:34.932Z,25.75
2022-09-06T09:14:34.905Z,26.10
2022-09-06T09:15:39.596Z,26.05
2022-09-06T09:16:35.966Z,26.16
2022-09-06T09:17:34.880Z,26.51
2022-09-06T09:18:34.889Z,26.78
2022-09-06T09:19:34.861Z,27.03
2022-09-06T09:20:34.851Z,26.93
2022-09-06T09:21:34.875Z,26.77
2022-09-06T09:22:34.844Z,26.09
2022-09-06T09:23:34.816Z,26.00
2022-09-06T09:24:34.806Z,25.51
2022-09-06T09:25:34.800Z,25.93
2022-09-06T09:26:34.777Z,26.33
2022-09-06T09:27:34.794Z,26.47
2022-09-06T09:28:34.758Z,26.97
2022-09-06T09:29:36.478Z,27.10
2022-09-06T09:30:50.273Z,26.75
2022-09-06T09:31:35.800Z,26.84
2022-09-06T09:32:34.732Z,26.47
2022-09-06T09:33:34.725Z,25.78
2022-09-06T09:34:34.700Z,25.41
2022-09-06T09:35:34.681Z,25.33
2022-09-06T09:36:34.696Z,25.21
2022-09-06T09:37:52.965Z,24.69
2022-09-06T09:38:35.654Z,24.65
2022-09-06T09:39:34.801Z,24.54
2022-09-06T09:40:34.626Z,24.57
2022-09-06T09:41:34.651Z,24.45
2022-09-06T09:42:34.604Z,24.36
2022-09-06T09:43:34.607Z,24.42
2022-09-06T09:44:34.581Z,24.35
2022-09-06T09:45:34.597Z,24.48
2022-09-06T09:46:34.655Z,24.66
2022-09-06T09:47:34.564Z,24.61
2022-09-06T09:48:34.565Z,24.50
2022-09-06T09:49:34.529Z,24.53
2022-09-06T09:50:34.569Z,24.68
2022-09-06T09:51:34.507Z,24.73
2022-09-06T09:52:34.497Z,24.65
2022-09-06T09:53:34.488Z,24.66
2022-09-06T09:54:37.124Z,24.69
2022-09-06T09:55:34.468Z,24.61
2022-09-06T09:56:34.454Z,24.65
2022-09-06T09:57:34.450Z,24.68
2022-09-06T09:58:34.428Z,24.48
2022-09-06T09:59:34.418Z,24.32
2022-09-06T10:00:34.495Z,24.24
2022-09-06T10:01:34.398Z,23.69
2022-09-06T10:02:34.415Z,23.56
2022-09-06T10:03:34.598Z,24.06
2022-09-06T10:05:35.350Z,24.66
2022-09-06T10:07:35.358Z,25.25
2022-09-06T10:08:34.344Z,25.23
2022-09-06T10:09:34.377Z,25.44
2022-09-06T10:10:34.298Z,25.84
2022-09-06T10:11:34.318Z,25.95
2022-09-06T10:12:34.271Z,25.22
2022-09-06T10:13:34.372Z,25.01
2022-09-06T10:14:34.256Z,25.04
2022-09-06T10:15:34.301Z,25.23
2022-09-06T10:16:34.249Z,24.99
2022-09-06T10:17:34.240Z,24.84
2022-09-06T10:18:34.252Z,25.13
2022-09-06T10:19:34.199Z,25.35
2022-09-06T10:20:34.211Z,25.38
2022-09-06T10:21:34.196Z,25.40
2022-09-06T10:22:34.163Z,25.32
2022-09-06T10:24:35.144Z,24.86
2022-09-06T10:25:34.131Z,24.74
2022-09-06T10:26:34.160Z,24.63
2022-09-06T10:27:34.140Z,24.43
2022-09-06T10:28:34.127Z,23.96
2022-09-06T10:29:34.143Z,23.54
2022-09-06T10:30:34.326Z,23.47
2022-09-06T10:31:34.117Z,23.41
2022-09-06T10:32:34.060Z,23.31
2022-09-06T10:33:34.077Z,23.39
2022-09-06T10:34:34.063Z,23.47
2022-09-06T10:35:34.019Z,23.50
2022-09-06T10:36:34.024Z,23.59
2022-09-06T10:37:34.002Z,23.55
2022-09-06T10:38:33.988Z,23.69
2022-09-06T10:39:34.070Z,23.43
2022-09-06T10:40:33.963Z,23.34
2022-09-06T10:41:33.951Z,23.37
2022-09-06T10:42:33.946Z,23.23
2022-09-06T10:43:33.936Z,23.18
2022-09-06T10:44:41.402Z,23.13
2022-09-06T10:45:34.042Z,23.08
2022-09-06T10:46:33.939Z,23.13
2022-09-06T10:47:33.893Z,23.09
2022-09-06T10:48:33.901Z,23.02
2022-09-06T10:49:33.970Z,23.05
2022-09-06T10:50:33.856Z,23.10
2022-09-06T10:51:33.878Z,23.12
2022-09-06T10:52:33.836Z,23.18
2022-09-06T10:53:33.945Z,23.10
2022-09-06T10:54:33.830Z,23.10
2022-09-06T10:55:33.868Z,23.00
2022-09-06T10:56:33.810Z,23.12
2022-09-06T11:00:33.798Z,23.24
2022-09-06T11:01:33.888Z,23.32
2022-09-06T11:02:34.019Z,23.32
2022-09-06T11:06:33.684Z,23.24
2022-09-06T11:07:33.773Z,23.40
2022-09-06T11:08:51.110Z,23.43
2022-09-06T11:09:34.647Z,23.37
2022-09-06T11:10:33.629Z,23.46
2022-09-06T11:11:33.626Z,23.43
2022-09-06T11:12:33.609Z,23.41
2022-09-06T11:13:33.640Z,23.62
2022-09-06T11:14:33.588Z,23.43
2022-09-06T11:15:33.594Z,23.31
2022-09-06T11:16:33.570Z,23.36
2022-09-06T11:17:33.821Z,23.50
2022-09-06T11:18:33.550Z,23.59
2022-09-06T11:19:33.540Z,24.03
2022-09-06T11:20:33.524Z,24.45
2022-09-06T11:21:33.522Z,24.89
2022-09-06T11:22:33.533Z,25.21
2022-09-06T11:23:33.578Z,25.31
2022-09-06T11:24:33.485Z,25.41
2022-09-06T11:25:33.524Z,25.72
2022-09-06T11:26:33.462Z,25.36
2022-09-06T11:27:33.465Z,25.35
2022-09-06T11:28:33.437Z,25.33
2022-09-06T11:29:33.428Z,25.21
2022-09-06T11:30:36.738Z,25.31
2022-09-06T11:32:34.397Z,24.99
2022-09-06T11:33:33.382Z,24.76
2022-09-06T11:34:33.369Z,24.45
2022-09-06T11:35:36.802Z,24.36
2022-09-06T11:36:33.353Z,24.23
2022-09-06T11:37:33.340Z,24.16
2022-09-06T11:38:33.676Z,24.08
2022-09-06T11:40:34.331Z,24.20
2022-09-06T11:41:33.323Z,23.98
2022-09-06T11:42:33.285Z,23.91
2022-09-06T11:43:33.282Z,23.93
2022-09-06T11:44:33.257Z,23.78
2022-09-06T11:45:33.304Z,23.58
2022-09-06T11:46:33.348Z,23.54
2022-09-06T11:47:33.232Z,23.48
2022-09-06T11:48:33.237Z,23.37
2022-09-06T11:49:33.207Z,23.17
2022-09-06T11:50:33.218Z,23.21
2022-09-06T11:51:35.048Z,23.21
2022-09-06T11:52:33.170Z,23.13
2022-09-06T11:53:33.170Z,23.18
2022-09-06T11:54:33.182Z,23.20
2022-09-06T11:55:33.251Z,23.18
2022-09-06T11:56:33.157Z,23.12
2022-09-06T11:57:33.118Z,23.02
2022-09-06T11:58:33.111Z,23.06
2022-09-06T11:59:33.099Z,23.05
2022-09-06T12:00:33.105Z,23.02
2022-09-06T12:01:33.094Z,23.00
2022-09-06T12:02:33.199Z,23.12
2022-09-06T12:04:34.061Z,23.18
2022-09-06T12:05:33.044Z,23.17
2022-09-06T12:06:33.025Z,23.24
2022-09-06T12:07:33.023Z,23.24
2022-09-06T12:08:32.996Z,23.24
2022-09-06T12:09:32.987Z,23.23
2022-09-06T12:10:33.176Z,23.21
2022-09-06T12:11:32.966Z,23.23
2022-09-06T12:12:32.954Z,23.25
2022-09-06T12:13:32.945Z,23.27
2022-09-06T12:14:33.198Z,23.31
2022-09-06T12:15:32.990Z,23.39
2022-09-06T12:16:32.907Z,23.31
2022-09-06T12:17:32.897Z,23.24
2022-09-06T12:18:32.909Z,23.15
2022-09-06T12:19:32.875Z,23.17
2022-09-06T12:20:32.881Z,23.17
2022-09-06T12:21:32.875Z,23.17
2022-09-06T12:22:32.865Z,23.20
2022-09-06T12:23:32.830Z,23.23
2022-09-06T12:24:32.865Z,23.39
2022-09-06T12:25:32.814Z,23.40
2022-09-06T12:26:32.819Z,23.44
2022-09-06T12:27:32.791Z,23.34
2022-09-06T12:28:32.772Z,23.31
2022-09-06T12:29:33.018Z,23.40
2022-09-06T12:30:32.751Z,23.46
2022-09-06T12:31:33.377Z,23.46
2022-09-06T12:32:36.813Z,23.46
2022-09-06T12:33:32.722Z,23.41
2022-09-06T12:34:32.709Z,23.50
2022-09-06T12:36:33.686Z,23.58
2022-09-06T12:37:32.679Z,23.56
2022-09-06T12:38:32.665Z,23.59
2022-09-06T12:39:32.755Z,23.50
2022-09-06T12:40:32.661Z,23.51
2022-09-06T12:41:32.653Z,23.55
2022-09-06T12:42:33.133Z,23.66
2022-09-06T12:43:32.606Z,23.68
2022-09-06T12:44:32.641Z,23.69
2022-09-06T12:45:32.584Z,23.74
2022-09-06T12:46:32.812Z,23.86
2022-09-06T12:47:32.568Z,23.93
2022-09-06T12:48:32.587Z,24.01
2022-09-06T12:49:32.541Z,24.11
2022-09-06T12:50:32.539Z,24.29
2022-09-06T12:51:32.521Z,24.35
2022-09-06T12:52:32.522Z,24.42
2022-09-06T12:53:32.498Z,24.45
2022-09-06T12:54:32.506Z,24.48
2022-09-06T12:55:32.485Z,24.36
2022-09-06T12:56:32.467Z,24.20
2022-09-06T12:57:32.491Z,24.05
2022-09-06T12:58:32.457Z,24.14
2022-09-06T12:59:32.810Z,24.28
2022-09-06T13:00:32.428Z,24.39
2022-09-06T13:01:32.681Z,24.30
2022-09-06T13:02:32.635Z,24.29
2022-09-06T13:03:32.544Z,24.23
2022-09-06T13:04:32.396Z,24.35
2022-09-06T13:05:32.372Z,24.26
2022-09-06T13:06:32.361Z,24.14
2022-09-06T13:07:32.369Z,24.24
2022-09-06T13:08:35.659Z,24.29
2022-09-06T13:09:32.322Z,24.29
2022-09-06T13:10:32.318Z,24.40
2022-09-06T13:11:32.304Z,24.36
2022-09-06T13:12:32.295Z,24.48
2022-09-06T13:13:32.368Z,24.39
2022-09-06T13:14:32.270Z,24.40
2022-09-06T13:15:32.354Z,24.45
2022-09-06T13:16:32.385Z,24.48
2022-09-06T13:17:32.241Z,24.13
2022-09-06T13:18:32.258Z,24.06
2022-09-06T13:19:32.245Z,24.13
2022-09-06T13:20:32.257Z,24.29